Time;durP1;ratioP1;P1;durP2;ratioP2;P2;SDS_P1;SDS_P2;PMS_P1;PMS_P2;Temp;Humidity;BMP_temperature;BMP_pressure;BME280_temperature;BME280_humidity;BME280_pressure;Samples;Min_cycle;Max_cycle;Signal;HPM_P1;HPM_P2
2024/01/27 00:00:45;;;;;;;1.33;1.23;;;5.90;99.90;;;;;;4417165;32;20172;-59
2024/01/27 00:03:10;;;;;;;2.47;1.08;;;5.90;99.90;;;;;;4420248;32;20455;-61
2024/01/27 00:05:36;;;;;;;0.68;0.68;;;6.00;99.90;;;;;;4423927;32;20093;-60
2024/01/27 00:08:01;;;;;;;1.05;0.95;;;6.00;99.90;;;;;;4418147;32;20525;-59
2024/01/27 00:10:27;;;;;;;36.72;1.37;;;6.00;99.90;;;;;;4418895;32;20061;-60
2024/01/27 00:12:52;;;;;;;0.35;0.35;;;6.00;99.90;;;;;;4419563;32;20081;-59
2024/01/27 00:15:18;;;;;;;0.30;0.30;;;5.90;99.90;;;;;;4420780;32;20124;-60
2024/01/27 00:17:44;;;;;;;0.30;0.30;;;5.90;99.90;;;;;;4419644;32;21149;-59
2024/01/27 00:20:09;;;;;;;0.57;0.57;;;5.90;99.90;;;;;;4421346;32;20058;-59
2024/01/27 00:22:35;;;;;;;2.15;0.82;;;5.90;99.90;;;;;;4418580;32;20082;-59
2024/01/27 00:25:01;;;;;;;0.28;0.28;;;6.00;99.90;;;;;;4415800;32;20073;-60
2024/01/27 00:27:26;;;;;;;0.50;0.50;;;5.90;99.90;;;;;;4415054;32;20073;-60
2024/01/27 00:29:52;;;;;;;4.00;1.60;;;5.90;99.90;;;;;;4415564;32;20085;-60
2024/01/27 00:32:17;;;;;;;0.65;0.65;;;5.90;99.90;;;;;;4418641;32;20419;-63
2024/01/27 00:34:42;;;;;;;26.67;0.75;;;5.90;99.90;;;;;;4418030;32;20108;-62
2024/01/27 00:37:08;;;;;;;0.30;0.30;;;6.00;99.90;;;;;;4411934;32;20522;-60
2024/01/27 00:39:33;;;;;;;7.22;0.80;;;6.00;99.90;;;;;;4418561;32;20129;-63
2024/01/27 00:41:59;;;;;;;1.80;0.62;;;6.00;99.90;;;;;;4412169;32;20093;-62
2024/01/27 00:44:25;;;;;;;2.28;0.93;;;6.00;99.90;;;;;;4411134;32;20058;-62
2024/01/27 00:46:50;;;;;;;6.18;2.03;;;6.00;99.90;;;;;;4418525;32;20438;-60
2024/01/27 00:49:15;;;;;;;2.33;1.70;;;6.00;99.90;;;;;;4412962;32;20108;-60
2024/01/27 00:51:41;;;;;;;3.30;1.95;;;6.00;99.90;;;;;;4418164;32;20516;-61
2024/01/27 00:54:06;;;;;;;0.85;0.85;;;6.00;99.90;;;;;;4419352;32;20082;-61
2024/01/27 00:56:32;;;;;;;0.45;0.45;;;5.90;99.90;;;;;;4420907;32;20489;-61
2024/01/27 00:58:57;;;;;;;0.40;0.40;;;5.90;99.90;;;;;;4416571;32;20078;-62
2024/01/27 01:01:23;;;;;;;0.60;0.60;;;5.90;99.90;;;;;;4418954;32;20076;-61
2024/01/27 01:03:48;;;;;;;0.20;0.20;;;5.80;99.90;;;;;;4419291;32;20120;-61
2024/01/27 01:06:14;;;;;;;0.30;0.30;;;5.80;99.90;;;;;;4419569;32;20233;-63
2024/01/27 01:08:39;;;;;;;0.30;0.30;;;5.80;99.90;;;;;;4415104;32;20094;-61
2024/01/27 01:11:05;;;;;;;0.52;0.50;;;5.80;99.90;;;;;;4400390;32;20077;-62
2024/01/27 01:13:30;;;;;;;3.30;1.30;;;5.70;99.90;;;;;;4415716;32;20077;-61
2024/01/27 01:15:56;;;;;;;4.57;1.48;;;5.70;99.90;;;;;;4418411;32;20139;-61
2024/01/27 01:18:21;;;;;;;4.93;1.92;;;5.70;99.90;;;;;;4415978;32;20090;-61
2024/01/27 01:20:47;;;;;;;2.22;1.17;;;5.60;99.90;;;;;;4418843;32;20147;-61
2024/01/27 01:23:12;;;;;;;0.30;0.30;;;5.60;99.90;;;;;;4404862;32;20527;-63
2024/01/27 01:25:37;;;;;;;0.30;0.30;;;5.50;99.90;;;;;;4416987;32;20093;-61
2024/01/27 01:28:03;;;;;;;18.05;3.40;;;5.50;99.90;;;;;;4419488;32;20175;-64
2024/01/27 01:30:29;;;;;;;3.17;1.50;;;5.50;99.90;;;;;;4409357;32;20081;-60
2024/01/27 01:32:54;;;;;;;0.30;0.30;;;5.60;99.90;;;;;;4419023;32;20089;-63
2024/01/27 01:35:20;;;;;;;0.40;0.40;;;5.60;99.90;;;;;;4414858;32;20096;-63
2024/01/27 01:37:48;;;;;;;0.20;0.20;;;5.50;99.90;;;;;;4418488;32;20058;-64
2024/01/27 01:40:15;;;;;;;0.30;0.30;;;5.60;99.90;;;;;;4417784;32;20611;-63
2024/01/27 01:42:41;;;;;;;3.95;1.23;;;5.50;99.90;;;;;;4419284;32;20120;-61
2024/01/27 01:45:07;;;;;;;0.50;0.50;;;5.50;99.90;;;;;;4417797;32;20257;-60
2024/01/27 01:47:33;;;;;;;7.57;1.20;;;5.50;99.90;;;;;;4419797;32;20192;-61
2024/01/27 01:49:59;;;;;;;3.70;0.85;;;5.50;99.90;;;;;;4418695;32;20570;-61
2024/01/27 01:52:24;;;;;;;0.85;0.85;;;5.50;99.90;;;;;;4414226;32;20065;-62
2024/01/27 01:54:50;;;;;;;2.37;0.75;;;5.50;99.90;;;;;;4418914;32;20450;-62
2024/01/27 01:57:16;;;;;;;0.60;0.60;;;5.50;99.90;;;;;;4417261;32;20078;-62
2024/01/27 01:59:42;;;;;;;0.88;0.88;;;5.50;99.90;;;;;;4417885;32;20065;-61
2024/01/27 02:02:08;;;;;;;0.93;0.93;;;5.50;99.90;;;;;;4409587;32;20073;-61
2024/01/27 02:04:42;;;;;;;3.62;1.95;;;5.50;99.90;;;;;;4414232;32;20093;-61
2024/01/27 02:07:08;;;;;;;0.90;0.90;;;5.50;99.90;;;;;;4416972;32;20139;-62
2024/01/27 02:09:33;;;;;;;0.77;0.77;;;5.50;99.90;;;;;;4417236;32;20203;-64
2024/01/27 02:11:59;;;;;;;15.02;1.58;;;5.50;99.90;;;;;;4415629;32;20076;-62
2024/01/27 02:14:27;;;;;;;0.30;0.30;;;5.50;99.90;;;;;;4414899;32;20529;-61
2024/01/27 02:16:54;;;;;;;1.85;1.45;;;5.50;99.90;;;;;;4407115;32;20054;-62
2024/01/27 02:19:19;;;;;;;0.28;0.28;;;5.50;99.90;;;;;;4415169;32;20080;-62
2024/01/27 02:21:45;;;;;;;5.62;2.42;;;5.50;99.90;;;;;;4412689;32;20089;-62
2024/01/27 02:24:10;;;;;;;3.33;1.85;;;5.60;99.90;;;;;;4415546;32;20545;-63
2024/01/27 02:26:36;;;;;;;1.83;1.02;;;5.50;99.90;;;;;;4405280;32;20066;-62
2024/01/27 02:29:02;;;;;;;0.93;0.93;;;5.50;99.90;;;;;;4417098;32;20081;-62
2024/01/27 02:31:28;;;;;;;4.93;1.98;;;5.60;99.90;;;;;;4418420;32;20124;-62
2024/01/27 02:33:54;;;;;;;4.65;1.00;;;5.60;99.90;;;;;;4415351;32;20097;-62
2024/01/27 02:36:19;;;;;;;0.30;0.30;;;5.60;99.90;;;;;;4414390;32;20089;-62
2024/01/27 02:38:45;;;;;;;7.22;1.20;;;5.60;99.90;;;;;;4416418;32;20077;-61
2024/01/27 02:41:11;;;;;;;2.87;1.17;;;5.60;99.90;;;;;;4419682;32;20074;-62
2024/01/27 02:43:36;;;;;;;0.62;0.62;;;5.60;99.90;;;;;;4407449;32;20077;-61
2024/01/27 02:46:02;;;;;;;0.30;0.30;;;5.60;99.90;;;;;;4417603;32;20086;-60
2024/01/27 02:48:27;;;;;;;11.43;3.00;;;5.60;99.90;;;;;;4418611;32;20419;-60
2024/01/27 02:50:53;;;;;;;0.32;0.32;;;5.50;99.90;;;;;;4419469;32;20077;-61
2024/01/27 02:53:18;;;;;;;0.30;0.30;;;5.50;99.90;;;;;;4427492;32;20101;-61
2024/01/27 02:55:44;;;;;;;17.60;1.37;;;5.50;99.90;;;;;;4405738;32;20061;-60
2024/01/27 02:58:10;;;;;;;11.35;2.05;;;5.40;99.90;;;;;;4420682;32;20062;-61
2024/01/27 03:00:35;;;;;;;0.43;0.43;;;5.40;99.90;;;;;;4405945;32;20450;-60
2024/01/27 03:03:01;;;;;;;0.40;0.40;;;5.40;99.90;;;;;;4418327;32;20072;-63
2024/01/27 03:05:26;;;;;;;1.98;1.48;;;5.30;99.90;;;;;;4406239;32;20077;-63
2024/01/27 03:07:51;;;;;;;2.15;1.48;;;5.20;99.90;;;;;;4418350;32;20212;-62
2024/01/27 03:10:17;;;;;;;6.65;1.95;;;5.30;99.90;;;;;;4421656;32;20438;-61
2024/01/27 03:12:42;;;;;;;0.60;0.60;;;5.20;99.90;;;;;;4418582;32;20070;-61
2024/01/27 03:15:08;;;;;;;0.35;0.35;;;5.20;99.90;;;;;;4417159;32;20194;-62
2024/01/27 03:17:34;;;;;;;0.52;0.52;;;5.20;99.90;;;;;;4420185;32;20069;-62
2024/01/27 03:19:59;;;;;;;2.40;1.85;;;5.10;99.90;;;;;;4420358;32;20514;-61
2024/01/27 03:22:25;;;;;;;0.50;0.50;;;5.10;99.90;;;;;;4418138;32;20140;-62
2024/01/27 03:24:51;;;;;;;0.85;0.82;;;5.10;99.90;;;;;;4418889;32;20074;-63
2024/01/27 03:27:17;;;;;;;2.05;0.75;;;5.20;99.90;;;;;;4417324;32;20124;-61
2024/01/27 03:29:42;;;;;;;0.82;0.82;;;5.20;99.90;;;;;;4421189;32;20073;-63
2024/01/27 03:32:08;;;;;;;0.40;0.40;;;5.10;99.90;;;;;;4417691;32;20525;-63
2024/01/27 03:34:33;;;;;;;1.30;1.20;;;5.10;99.90;;;;;;4413743;32;20644;-62
2024/01/27 03:36:58;;;;;;;1.33;0.50;;;5.10;99.90;;;;;;4418178;32;20085;-62
2024/01/27 03:39:24;;;;;;;3.15;1.05;;;5.10;99.90;;;;;;4419629;32;20058;-64
2024/01/27 03:41:49;;;;;;;5.20;1.77;;;5.00;99.90;;;;;;4417558;32;20545;-62
2024/01/27 03:44:15;;;;;;;0.40;0.40;;;5.00;99.90;;;;;;4418772;32;20076;-62
2024/01/27 03:46:40;;;;;;;7.60;1.60;;;5.00;99.90;;;;;;4421454;32;20077;-62
2024/01/27 03:49:06;;;;;;;1.42;0.62;;;5.00;99.90;;;;;;4419585;32;20090;-62
2024/01/27 03:51:31;;;;;;;0.30;0.30;;;5.00;99.90;;;;;;4420530;32;20106;-60
2024/01/27 03:53:57;;;;;;;3.03;1.80;;;5.00;99.90;;;;;;4417537;32;20547;-60
2024/01/27 03:56:22;;;;;;;11.68;0.82;;;5.00;99.90;;;;;;4418305;32;20065;-60
2024/01/27 03:58:47;;;;;;;0.70;0.70;;;4.90;99.90;;;;;;4415297;32;20093;-60
2024/01/27 04:01:14;;;;;;;0.70;0.70;;;5.00;99.90;;;;;;4417495;32;20128;-61
2024/01/27 04:03:40;;;;;;;0.40;0.40;;;4.90;99.90;;;;;;4417730;32;20533;-62
2024/01/27 04:06:05;;;;;;;0.30;0.30;;;4.90;99.90;;;;;;4418183;32;20081;-62
2024/01/27 04:08:31;;;;;;;0.32;0.32;;;4.90;99.90;;;;;;4417612;32;20187;-61
2024/01/27 04:10:57;;;;;;;0.35;0.35;;;4.90;99.90;;;;;;4419929;32;20121;-62
2024/01/27 04:13:22;;;;;;;4.57;0.57;;;4.90;99.90;;;;;;4418880;32;20212;-69
2024/01/27 04:15:47;;;;;;;0.30;0.30;;;4.90;99.90;;;;;;4422228;32;20068;-62
2024/01/27 04:18:13;;;;;;;0.60;0.60;;;4.90;99.90;;;;;;4417861;32;20065;-62
2024/01/27 04:20:39;;;;;;;3.97;2.20;;;4.90;99.90;;;;;;4415436;32;20070;-61
2024/01/27 04:23:04;;;;;;;0.40;0.40;;;4.90;99.90;;;;;;4417465;32;20807;-60
2024/01/27 04:25:30;;;;;;;1.65;1.02;;;4.90;99.90;;;;;;4419839;32;20085;-61
2024/01/27 04:27:55;;;;;;;1.75;1.55;;;4.80;99.90;;;;;;4415201;32;20080;-61
2024/01/27 04:30:21;;;;;;;2.37;1.35;;;4.80;99.90;;;;;;4416628;32;20093;-61
2024/01/27 04:32:49;;;;;;;3.22;1.25;;;4.80;99.90;;;;;;4416158;32;20069;-62
2024/01/27 04:35:14;;;;;;;17.55;1.10;;;4.80;99.90;;;;;;4419057;32;20564;-60
2024/01/27 04:37:40;;;;;;;0.80;0.57;;;4.80;99.90;;;;;;4419167;32;20138;-60
2024/01/27 04:40:06;;;;;;;0.70;0.70;;;4.90;99.90;;;;;;4417864;32;20470;-60
2024/01/27 04:42:34;;;;;;;0.52;0.52;;;4.90;99.90;;;;;;4417247;32;20069;-62
2024/01/27 04:44:59;;;;;;;0.57;0.57;;;4.90;99.90;;;;;;4403204;32;20073;-63
2024/01/27 04:47:25;;;;;;;0.77;0.77;;;4.90;99.90;;;;;;4418369;32;20069;-62
2024/01/27 04:49:51;;;;;;;2.45;0.70;;;4.90;99.90;;;;;;4418943;32;20074;-62
2024/01/27 04:52:16;;;;;;;6.57;1.92;;;4.80;99.90;;;;;;4418741;32;20436;-62
2024/01/27 04:54:42;;;;;;;1.90;1.65;;;4.90;99.90;;;;;;4419751;32;21153;-60
2024/01/27 04:57:07;;;;;;;1.12;0.90;;;4.90;99.90;;;;;;4419551;32;20491;-62
2024/01/27 04:59:33;;;;;;;3.20;1.90;;;4.90;99.90;;;;;;4420615;32;20127;-62
2024/01/27 05:01:58;;;;;;;0.80;0.80;;;4.90;99.90;;;;;;4416030;32;20058;-64
2024/01/27 05:04:26;;;;;;;8.68;0.68;;;4.90;99.90;;;;;;4421636;32;20521;-65
2024/01/27 05:06:52;;;;;;;0.30;0.30;;;5.00;99.90;;;;;;4422134;32;20074;-65
2024/01/27 05:09:17;;;;;;;0.47;0.47;;;5.00;99.90;;;;;;4406318;32;20077;-64
2024/01/27 05:11:45;;;;;;;0.68;0.68;;;5.10;99.90;;;;;;4417244;32;20135;-64
2024/01/27 05:14:11;;;;;;;0.30;0.30;;;5.00;99.90;;;;;;4417295;32;20128;-65
2024/01/27 05:16:37;;;;;;;0.93;0.93;;;5.00;99.90;;;;;;4403042;32;20589;-64
2024/01/27 05:19:02;;;;;;;2.90;0.98;;;5.00;99.90;;;;;;4419579;32;20416;-65
2024/01/27 05:21:27;;;;;;;0.88;0.88;;;5.10;99.90;;;;;;4420162;32;20120;-61
2024/01/27 05:23:54;;;;;;;0.50;0.50;;;5.10;99.90;;;;;;4419560;32;20081;-63
2024/01/27 05:26:20;;;;;;;0.57;0.57;;;5.20;99.90;;;;;;4421084;32;20109;-63
2024/01/27 05:28:45;;;;;;;6.60;1.75;;;5.20;99.90;;;;;;4415779;32;20070;-63
2024/01/27 05:31:11;;;;;;;0.28;0.28;;;5.20;99.90;;;;;;4421727;32;20152;-62
2024/01/27 05:33:37;;;;;;;1.05;1.05;;;5.20;99.90;;;;;;4416199;32;20528;-63
2024/01/27 05:36:03;;;;;;;0.40;0.40;;;5.20;99.90;;;;;;4420243;32;20081;-63
2024/01/27 05:38:30;;;;;;;3.40;1.27;;;5.20;99.90;;;;;;4415644;32;20078;-65
2024/01/27 05:40:55;;;;;;;0.40;0.40;;;5.20;99.90;;;;;;4414938;32;20088;-63
2024/01/27 05:43:21;;;;;;;1.05;1.00;;;5.30;99.90;;;;;;4419925;32;20089;-63
2024/01/27 05:45:46;;;;;;;11.70;1.27;;;5.30;99.90;;;;;;4419562;32;20077;-63
2024/01/27 05:48:12;;;;;;;0.30;0.30;;;5.30;99.90;;;;;;4418101;32;20446;-63
2024/01/27 05:50:37;;;;;;;1.80;1.05;;;5.20;99.90;;;;;;4417165;32;20073;-63
2024/01/27 05:53:03;;;;;;;0.30;0.30;;;5.30;99.90;;;;;;4419180;32;20081;-63
2024/01/27 05:55:29;;;;;;;1.35;1.20;;;5.20;99.90;;;;;;4417770;32;20068;-63
2024/01/27 05:57:56;;;;;;;3.33;2.05;;;5.20;99.90;;;;;;4421186;32;20069;-63
2024/01/27 06:00:22;;;;;;;0.60;0.60;;;5.20;99.90;;;;;;4417246;32;20073;-63
2024/01/27 06:02:47;;;;;;;2.05;1.02;;;5.30;99.90;;;;;;4416600;32;20065;-65
2024/01/27 06:05:13;;;;;;;0.43;0.43;;;5.30;99.90;;;;;;4420013;32;20104;-62
2024/01/27 06:07:39;;;;;;;0.30;0.30;;;5.30;99.90;;;;;;4418523;32;20069;-63
2024/01/27 06:10:08;;;;;;;2.40;1.48;;;5.30;99.90;;;;;;4407622;32;20074;-63
2024/01/27 06:12:33;;;;;;;0.50;0.50;;;5.30;99.90;;;;;;4418194;32;20076;-62
2024/01/27 06:14:59;;;;;;;0.30;0.30;;;5.40;99.90;;;;;;4417245;32;20057;-61
2024/01/27 06:17:25;;;;;;;2.40;1.52;;;5.40;99.90;;;;;;4414715;32;20171;-62
2024/01/27 06:19:50;;;;;;;0.20;0.20;;;5.40;99.90;;;;;;4419614;32;20074;-60
2024/01/27 06:22:15;;;;;;;3.10;0.60;;;5.40;99.90;;;;;;4422094;32;20092;-60
2024/01/27 06:24:43;;;;;;;4.05;1.67;;;5.50;99.90;;;;;;4419089;32;20070;-63
2024/01/27 06:27:09;;;;;;;0.57;0.57;;;5.50;99.90;;;;;;4416224;32;20117;-60
2024/01/27 06:29:34;;;;;;;2.20;1.75;;;5.60;99.90;;;;;;4417328;32;20089;-64
2024/01/27 06:32:00;;;;;;;0.32;0.32;;;5.50;99.90;;;;;;4414367;32;20090;-61
2024/01/27 06:34:25;;;;;;;0.40;0.40;;;5.50;99.90;;;;;;4419134;32;20072;-61
2024/01/27 06:36:51;;;;;;;0.30;0.30;;;5.60;99.90;;;;;;4417641;32;20085;-60
2024/01/27 06:39:16;;;;;;;0.30;0.30;;;5.60;99.90;;;;;;4417088;32;20448;-60
2024/01/27 06:41:41;;;;;;;0.30;0.30;;;5.50;99.90;;;;;;4416465;32;20081;-61
2024/01/27 06:44:07;;;;;;;0.60;0.57;;;5.50;99.90;;;;;;4414659;32;20077;-61
2024/01/27 06:46:33;;;;;;;0.60;0.60;;;5.50;99.90;;;;;;4421503;32;20061;-60
2024/01/27 06:48:58;;;;;;;0.30;0.30;;;5.50;99.90;;;;;;4399974;32;20094;-60
2024/01/27 06:51:24;;;;;;;0.40;0.40;;;5.50;99.90;;;;;;4415252;32;20077;-65
2024/01/27 06:53:49;;;;;;;0.65;0.65;;;5.50;99.90;;;;;;4419993;32;20488;-65
2024/01/27 06:56:15;;;;;;;2.67;1.95;;;5.50;99.90;;;;;;4419885;32;20074;-64
2024/01/27 06:58:41;;;;;;;0.77;0.77;;;5.40;99.90;;;;;;4419619;32;20069;-64
2024/01/27 07:01:08;;;;;;;0.30;0.30;;;5.40;99.90;;;;;;4420541;32;20599;-64
2024/01/27 07:03:33;;;;;;;0.47;0.47;;;5.50;99.90;;;;;;4415962;32;20062;-64
2024/01/27 07:06:01;;;;;;;7.75;1.37;;;5.60;99.90;;;;;;4416256;32;20089;-64
2024/01/27 07:08:26;;;;;;;0.30;0.30;;;5.50;99.90;;;;;;4416829;32;20074;-65
2024/01/27 07:10:52;;;;;;;1.10;0.57;;;5.60;99.90;;;;;;4417438;32;20301;-64
2024/01/27 07:13:17;;;;;;;1.65;0.82;;;5.60;99.90;;;;;;4417647;32;20524;-64
2024/01/27 07:15:43;;;;;;;0.68;0.68;;;5.60;99.90;;;;;;4415531;32;20073;-64
2024/01/27 07:18:09;;;;;;;0.30;0.30;;;5.50;99.90;;;;;;4420454;32;20500;-64
2024/01/27 07:20:35;;;;;;;0.30;0.30;;;5.60;99.90;;;;;;4417028;32;20081;-64
2024/01/27 07:23:01;;;;;;;0.40;0.40;;;5.60;99.90;;;;;;4419908;32;20142;-63
2024/01/27 07:25:28;;;;;;;2.45;1.10;;;5.60;99.90;;;;;;4420081;32;20502;-63
2024/01/27 07:27:53;;;;;;;0.50;0.50;;;5.60;99.90;;;;;;4421615;32;20133;-63
2024/01/27 07:30:19;;;;;;;0.77;0.77;;;5.70;99.90;;;;;;4422505;32;20080;-62
2024/01/27 07:32:44;;;;;;;0.65;0.57;;;5.70;99.90;;;;;;4416632;32;21234;-63
2024/01/27 07:35:10;;;;;;;0.30;0.30;;;5.70;99.90;;;;;;4419244;32;20081;-62
2024/01/27 07:37:36;;;;;;;27.85;1.85;;;5.70;99.90;;;;;;4403522;32;20058;-62
2024/01/27 07:40:02;;;;;;;2.72;0.75;;;5.70;99.90;;;;;;4424508;32;20066;-63
2024/01/27 07:42:27;;;;;;;2.22;1.10;;;5.70;99.90;;;;;;4419621;32;20081;-63
2024/01/27 07:44:53;;;;;;;3.92;1.30;;;5.70;99.90;;;;;;4419729;32;20078;-63
2024/01/27 07:47:18;;;;;;;0.40;0.40;;;5.70;99.90;;;;;;4418101;32;20128;-64
2024/01/27 07:49:44;;;;;;;1.45;0.60;;;5.70;99.90;;;;;;4419143;32;20081;-62
2024/01/27 07:52:10;;;;;;;3.03;1.42;;;5.80;99.90;;;;;;4414910;32;20085;-62
2024/01/27 07:54:38;;;;;;;2.95;1.40;;;5.80;99.90;;;;;;4419254;32;20477;-63
2024/01/27 07:57:05;;;;;;;35.67;1.05;;;5.80;99.90;;;;;;4416520;32;20093;-63
2024/01/27 07:59:30;;;;;;;0.30;0.30;;;5.80;99.90;;;;;;4411352;32;20073;-63
2024/01/27 08:01:56;;;;;;;0.20;0.20;;;5.80;99.90;;;;;;4401467;32;20072;-62
2024/01/27 08:04:21;;;;;;;0.30;0.30;;;5.90;99.90;;;;;;4420008;32;20100;-61
2024/01/27 08:06:49;;;;;;;0.30;0.30;;;5.90;99.90;;;;;;4410768;32;20121;-61
2024/01/27 08:09:15;;;;;;;3.35;1.25;;;5.90;99.90;;;;;;4401025;32;20081;-61
2024/01/27 08:11:40;;;;;;;8.88;0.80;;;5.90;99.90;;;;;;4413732;32;20081;-61
2024/01/27 08:14:06;;;;;;;0.60;0.60;;;5.90;99.90;;;;;;4394731;32;20144;-61
2024/01/27 08:16:31;;;;;;;0.73;0.73;;;6.00;99.90;;;;;;4407752;32;20457;-61
2024/01/27 08:18:57;;;;;;;0.50;0.50;;;5.90;99.90;;;;;;4408545;32;20663;-60
2024/01/27 08:21:22;;;;;;;1.98;0.82;;;5.90;99.90;;;;;;4413239;32;20086;-61
2024/01/27 08:23:48;;;;;;;4.93;1.65;;;5.90;99.90;;;;;;4411739;32;20081;-61
2024/01/27 08:26:14;;;;;;;0.77;0.75;;;5.90;99.90;;;;;;4418018;32;20098;-62
2024/01/27 08:28:40;;;;;;;0.37;0.37;;;6.00;99.90;;;;;;4415299;32;20489;-62
2024/01/27 08:31:06;;;;;;;0.30;0.30;;;6.00;99.90;;;;;;4416679;32;20070;-61
2024/01/27 08:33:31;;;;;;;0.50;0.50;;;6.10;99.90;;;;;;4415621;32;20073;-60
2024/01/27 08:35:57;;;;;;;0.82;0.82;;;6.10;99.90;;;;;;4414243;32;20451;-60
2024/01/27 08:38:22;;;;;;;9.63;0.90;;;6.20;99.90;;;;;;4415151;32;20077;-60
2024/01/27 08:40:48;;;;;;;1.55;0.90;;;6.20;99.90;;;;;;4415807;32;20070;-60
2024/01/27 08:43:13;;;;;;;0.88;0.65;;;6.20;99.90;;;;;;4414680;32;20090;-60
2024/01/27 08:45:40;;;;;;;0.20;0.20;;;6.20;99.90;;;;;;4418408;32;20466;-61
2024/01/27 08:48:06;;;;;;;0.47;0.47;;;6.20;99.90;;;;;;4405143;32;20072;-60
2024/01/27 08:50:31;;;;;;;0.40;0.40;;;6.30;99.90;;;;;;4400902;32;20064;-63
2024/01/27 08:52:57;;;;;;;0.55;0.55;;;6.30;99.90;;;;;;4418103;32;20148;-59
2024/01/27 08:55:23;;;;;;;0.50;0.50;;;6.40;99.90;;;;;;4419895;32;20072;-60
2024/01/27 08:57:50;;;;;;;3.12;1.30;;;6.40;99.90;;;;;;4415068;32;20069;-62
2024/01/27 09:00:16;;;;;;;0.40;0.40;;;6.50;99.90;;;;;;4418281;32;20132;-60
2024/01/27 09:02:42;;;;;;;0.68;0.68;;;6.40;99.90;;;;;;4417378;32;20571;-60
2024/01/27 09:05:08;;;;;;;1.12;1.02;;;6.40;99.90;;;;;;4405035;32;20069;-60
2024/01/27 09:07:34;;;;;;;0.40;0.40;;;6.40;99.90;;;;;;4418539;32;20093;-60
2024/01/27 09:09:59;;;;;;;0.40;0.40;;;6.40;99.90;;;;;;4404820;32;20078;-61
2024/01/27 09:12:25;;;;;;;0.30;0.30;;;6.50;99.90;;;;;;4417315;32;20136;-64
2024/01/27 09:14:50;;;;;;;0.35;0.35;;;6.50;99.90;;;;;;4416108;32;20168;-64
2024/01/27 09:17:16;;;;;;;0.50;0.50;;;6.50;99.90;;;;;;4418682;32;20525;-65
2024/01/27 09:19:42;;;;;;;14.68;1.60;;;6.60;99.90;;;;;;4415589;32;20073;-65
2024/01/27 09:22:07;;;;;;;0.60;0.60;;;6.50;99.90;;;;;;4423104;32;20101;-64
2024/01/27 09:24:33;;;;;;;0.30;0.30;;;6.50;99.90;;;;;;4417604;32;20058;-66
2024/01/27 09:26:58;;;;;;;3.90;2.40;;;6.50;99.90;;;;;;4421675;32;20077;-64
2024/01/27 09:29:24;;;;;;;1.08;0.80;;;6.50;99.90;;;;;;4415981;32;20065;-64
2024/01/27 09:31:49;;;;;;;2.25;1.65;;;6.40;99.90;;;;;;4419286;32;20172;-64
2024/01/27 09:34:15;;;;;;;1.58;1.10;;;6.40;99.90;;;;;;4416181;32;20077;-65
2024/01/27 09:36:40;;;;;;;4.12;1.45;;;6.40;99.90;;;;;;4415280;32;20077;-64
2024/01/27 09:39:06;;;;;;;1.05;1.05;;;6.50;99.90;;;;;;4414658;32;20082;-64
2024/01/27 09:41:32;;;;;;;0.95;0.95;;;6.50;99.90;;;;;;4414721;32;20062;-60
2024/01/27 09:44:02;;;;;;;3.10;1.05;;;6.40;99.90;;;;;;4406432;32;20442;-60
2024/01/27 09:46:28;;;;;;;3.92;0.85;;;6.40;99.90;;;;;;4420889;32;20060;-60
2024/01/27 09:48:54;;;;;;;2.15;1.65;;;6.40;99.90;;;;;;4402773;32;20076;-62
2024/01/27 09:51:20;;;;;;;0.50;0.50;;;6.40;99.90;;;;;;4415930;32;20084;-60
2024/01/27 09:53:45;;;;;;;1.75;0.82;;;6.40;99.90;;;;;;4414988;32;20129;-61
2024/01/27 09:56:17;;;;;;;0.50;0.50;;;6.50;99.90;;;;;;4408314;32;20069;-58
2024/01/27 09:58:44;;;;;;;0.30;0.30;;;6.50;99.90;;;;;;4416890;32;20548;-61
2024/01/27 10:01:10;;;;;;;0.60;0.60;;;6.50;99.90;;;;;;4419961;32;20621;-59
2024/01/27 10:03:38;;;;;;;4.20;1.60;;;6.60;99.90;;;;;;4403952;32;20077;-62
2024/01/27 10:06:07;;;;;;;2.97;1.60;;;6.60;99.90;;;;;;4407516;32;20495;-61
2024/01/27 10:08:33;;;;;;;0.40;0.40;;;6.50;99.90;;;;;;4418927;32;20559;-62
2024/01/27 10:10:59;;;;;;;0.70;0.55;;;6.50;99.90;;;;;;4416565;32;20112;-60
2024/01/27 10:13:27;;;;;;;0.40;0.40;;;6.50;99.90;;;;;;4414689;32;20069;-61
2024/01/27 10:16:09;;;;;;;1.02;0.77;;;6.40;99.90;;;;;;4416808;32;21636;-60
2024/01/27 10:18:35;;;;;;;2.12;0.82;;;6.40;99.90;;;;;;4419685;32;20097;-59
2024/01/27 10:21:13;;;;;;;1.23;1.12;;;6.40;99.90;;;;;;4419020;32;20066;-60
2024/01/27 10:23:39;;;;;;;1.75;1.10;;;6.60;99.90;;;;;;4404236;32;20082;-64
2024/01/27 10:26:05;;;;;;;1.52;0.93;;;6.60;99.90;;;;;;4414318;32;20776;-64
2024/01/27 10:28:30;;;;;;;33.97;1.30;;;6.70;99.90;;;;;;4415871;32;20792;-64
2024/01/27 10:31:09;;;;;;;0.50;0.50;;;6.80;99.90;;;;;;4416893;32;20423;-64
2024/01/27 10:33:34;;;;;;;1.30;1.15;;;6.90;99.90;;;;;;4425162;32;20077;-64
2024/01/27 10:36:00;;;;;;;5.45;2.62;;;7.00;99.90;;;;;;4419137;32;20521;-69
2024/01/27 10:38:34;;;;;;;0.40;0.40;;;7.00;99.90;;;;;;4419254;32;20061;-64
2024/01/27 10:41:01;;;;;;;2.25;1.48;;;7.10;99.90;;;;;;4416652;32;20446;-64
2024/01/27 10:43:27;;;;;;;3.00;1.75;;;7.10;99.90;;;;;;4402167;32;20070;-64
2024/01/27 10:45:54;;;;;;;1.35;0.77;;;7.10;99.90;;;;;;4415699;32;20073;-63
2024/01/27 10:48:20;;;;;;;1.35;0.68;;;7.00;99.90;;;;;;4418021;32;20419;-64
2024/01/27 10:50:47;;;;;;;0.68;0.60;;;7.00;99.90;;;;;;4416409;32;20094;-64
2024/01/27 10:53:23;;;;;;;2.45;1.42;;;7.10;99.90;;;;;;4414578;32;20061;-61
2024/01/27 10:55:52;;;;;;;0.20;0.20;;;7.20;99.90;;;;;;4404053;32;20072;-61
2024/01/27 10:58:19;;;;;;;3.28;1.27;;;7.20;99.90;;;;;;4417270;32;20081;-61
2024/01/27 11:00:47;;;;;;;0.95;0.95;;;7.20;99.90;;;;;;4419292;32;20426;-60
2024/01/27 11:03:12;;;;;;;4.87;0.68;;;7.10;99.90;;;;;;4420118;32;20082;-61
2024/01/27 11:05:39;;;;;;;6.78;1.10;;;7.10;99.90;;;;;;4423195;32;20069;-61
2024/01/27 11:08:07;;;;;;;11.40;0.82;;;7.10;99.90;;;;;;4417947;32;20072;-61
2024/01/27 11:10:35;;;;;;;0.90;0.75;;;7.20;99.90;;;;;;4419031;32;20120;-61
2024/01/27 11:13:03;;;;;;;15.32;1.10;;;7.10;99.90;;;;;;4416250;32;20054;-61
2024/01/27 11:15:29;;;;;;;0.75;0.75;;;7.10;99.90;;;;;;4422403;32;20081;-62
2024/01/27 11:17:59;;;;;;;1.87;1.45;;;7.20;99.90;;;;;;4413972;32;20068;-61
2024/01/27 11:20:25;;;;;;;2.90;1.00;;;7.10;99.90;;;;;;4418548;32;20077;-62
2024/01/27 11:22:51;;;;;;;0.30;0.30;;;7.10;99.90;;;;;;4420091;32;20065;-61
2024/01/27 11:25:18;;;;;;;0.90;0.57;;;7.20;99.90;;;;;;4416287;32;20152;-61
2024/01/27 11:27:45;;;;;;;1.27;1.17;;;7.20;99.90;;;;;;4416347;32;20119;-60
2024/01/27 11:30:27;;;;;;;1.10;0.95;;;7.20;99.90;;;;;;4419411;32;20077;-61
2024/01/27 11:32:55;;;;;;;0.32;0.32;;;7.20;99.90;;;;;;4402931;32;20157;-59
2024/01/27 11:35:21;;;;;;;1.33;1.23;;;7.20;99.90;;;;;;4406709;32;20417;-60
2024/01/27 11:37:48;;;;;;;0.47;0.47;;;7.30;99.90;;;;;;4415088;32;20173;-59
2024/01/27 11:40:14;;;;;;;5.22;0.77;;;7.30;99.90;;;;;;4417838;32;20086;-59
2024/01/27 11:42:39;;;;;;;0.88;0.52;;;7.30;99.90;;;;;;4419791;32;20133;-60
2024/01/27 11:45:05;;;;;;;3.08;0.60;;;7.20;99.90;;;;;;4419080;32;20085;-59
2024/01/27 11:47:31;;;;;;;0.85;0.82;;;7.20;99.90;;;;;;4423687;32;20073;-59
2024/01/27 11:49:58;;;;;;;0.60;0.60;;;7.20;99.90;;;;;;4418669;32;20469;-60
2024/01/27 11:52:24;;;;;;;10.52;1.05;;;7.20;99.90;;;;;;4414840;32;86748;-60
2024/01/27 11:54:58;;;;;;;0.22;0.22;;;7.20;99.90;;;;;;4407662;32;20057;-60
2024/01/27 11:57:24;;;;;;;1.50;0.90;;;7.30;99.90;;;;;;4418617;32;20065;-60
2024/01/27 11:59:51;;;;;;;0.73;0.73;;;7.30;99.90;;;;;;4406672;32;20097;-59
2024/01/27 12:02:17;;;;;;;0.95;0.95;;;7.20;99.90;;;;;;4406957;32;20066;-60
2024/01/27 12:04:42;;;;;;;1.37;1.10;;;7.20;99.90;;;;;;4416997;32;20057;-61
2024/01/27 12:07:09;;;;;;;1.00;0.90;;;7.20;99.90;;;;;;4418573;32;20380;-63
2024/01/27 12:09:35;;;;;;;1.08;0.60;;;7.20;99.90;;;;;;4407757;32;20068;-61
2024/01/27 12:12:01;;;;;;;1.62;0.88;;;7.30;99.90;;;;;;4417471;32;20097;-61
2024/01/27 12:14:39;;;;;;;30.23;1.00;;;7.30;99.90;;;;;;4417439;32;20070;-61
2024/01/27 12:17:04;;;;;;;1.98;0.43;;;7.30;99.90;;;;;;4417491;32;20659;-61
2024/01/27 12:19:30;;;;;;;0.70;0.70;;;7.40;99.90;;;;;;4415504;32;20090;-61
2024/01/27 12:21:57;;;;;;;10.68;0.75;;;7.50;99.90;;;;;;4417363;32;20086;-61
2024/01/27 12:24:24;;;;;;;0.30;0.30;;;7.60;99.90;;;;;;4408628;32;20090;-61
2024/01/27 12:26:49;;;;;;;0.37;0.37;;;7.70;99.90;;;;;;4418030;32;20127;-62
2024/01/27 12:29:15;;;;;;;2.40;1.73;;;7.70;99.90;;;;;;4415853;32;20085;-62
2024/01/27 12:31:41;;;;;;;3.10;1.75;;;7.70;99.90;;;;;;4419359;32;20073;-61
2024/01/27 12:34:07;;;;;;;1.08;0.88;;;7.80;99.90;;;;;;4404189;32;20077;-61
2024/01/27 12:36:32;;;;;;;0.50;0.50;;;7.70;99.90;;;;;;4403047;32;20578;-61
2024/01/27 12:39:00;;;;;;;2.20;1.33;;;7.70;99.90;;;;;;4420689;32;20131;-61
2024/01/27 12:41:27;;;;;;;0.40;0.40;;;7.70;99.90;;;;;;4378797;32;21708;-61
2024/01/27 12:43:53;;;;;;;1.55;1.15;;;7.70;99.90;;;;;;4419934;32;20085;-61
2024/01/27 12:46:18;;;;;;;0.50;0.50;;;7.70;99.90;;;;;;4416970;32;20078;-61
2024/01/27 12:48:45;;;;;;;1.48;1.10;;;7.80;99.90;;;;;;4413570;32;20069;-61